createdAt,value
2019-05-18T00:02:23.690Z,1.50
2019-05-18T00:04:54.873Z,2.27
2019-05-18T00:07:24.909Z,2.10
2019-05-18T00:09:54.931Z,2.17
2019-05-18T00:12:24.968Z,3.02
2019-05-18T00:14:55.065Z,2.55
2019-05-18T00:17:25.679Z,2.58
2019-05-18T00:19:55.921Z,2.40
2019-05-18T00:22:25.967Z,2.10
2019-05-18T00:24:56.013Z,2.22
2019-05-18T00:27:26.136Z,1.40
2019-05-18T00:29:56.166Z,1.60
2019-05-18T00:32:26.269Z,1.25
2019-05-18T00:34:56.373Z,1.20
2019-05-18T00:37:26.528Z,1.60
2019-05-18T00:39:56.818Z,0.98
2019-05-18T00:42:26.901Z,1.10
2019-05-18T00:44:57.298Z,1.17
2019-05-18T00:47:40.256Z,1.20
2019-05-18T00:49:59.000Z,1.30
2019-05-18T00:52:30.524Z,1.20
2019-05-18T00:55:00.553Z,1.10
2019-05-18T00:57:30.581Z,1.10
2019-05-18T01:00:00.808Z,1.12
2019-05-18T01:02:30.847Z,1.17
2019-05-18T01:05:00.867Z,1.10
2019-05-18T01:07:31.043Z,1.20
2019-05-18T01:10:01.076Z,1.30
2019-05-18T01:12:31.196Z,0.90
2019-05-18T01:15:01.212Z,0.82
2019-05-18T01:17:31.542Z,0.93
2019-05-18T01:20:01.577Z,1.00
2019-05-18T01:22:31.650Z,1.10
2019-05-18T01:25:01.764Z,1.00
2019-05-18T01:27:31.869Z,1.10
2019-05-18T01:30:01.925Z,1.20
2019-05-18T01:32:32.011Z,1.05
2019-05-18T01:35:02.071Z,1.32
2019-05-18T01:37:32.085Z,1.10
2019-05-18T01:40:02.246Z,0.90
2019-05-18T01:42:32.716Z,1.10
2019-05-18T01:45:15.786Z,1.25
2019-05-18T01:47:36.018Z,0.90
2019-05-18T01:50:06.997Z,1.00
2019-05-18T01:52:37.040Z,1.07
2019-05-18T01:55:07.611Z,1.02
2019-05-18T01:57:37.647Z,1.17
2019-05-18T02:00:08.904Z,1.12
2019-05-18T02:02:38.998Z,1.02
2019-05-18T02:05:10.455Z,1.40
2019-05-18T02:07:40.517Z,1.30
2019-05-18T02:10:10.849Z,1.10
2019-05-18T02:12:40.889Z,1.35
2019-05-18T02:15:11.072Z,1.47
2019-05-18T02:17:41.166Z,1.60
2019-05-18T02:20:13.209Z,1.50
2019-05-18T02:22:43.257Z,1.70
2019-05-18T02:25:13.829Z,1.55
2019-05-18T02:27:43.865Z,1.00
2019-05-18T02:30:17.336Z,1.57
2019-05-18T02:32:45.695Z,1.52
2019-05-18T02:35:15.888Z,1.32
2019-05-18T02:37:45.912Z,1.20
2019-05-18T02:40:16.289Z,1.47
2019-05-18T02:42:46.324Z,1.98
2019-05-18T02:45:16.431Z,1.35
2019-05-18T02:47:46.455Z,1.10
2019-05-18T02:50:16.735Z,1.37
2019-05-18T02:52:46.773Z,1.30
2019-05-18T02:55:16.952Z,0.90
2019-05-18T02:57:46.977Z,1.27
2019-05-18T03:00:17.174Z,1.30
2019-05-18T03:02:47.203Z,1.20
2019-05-18T03:05:17.397Z,0.90
2019-05-18T03:07:47.590Z,1.30
2019-05-18T03:10:18.156Z,1.30
2019-05-18T03:12:48.218Z,1.32
2019-05-18T03:15:18.414Z,1.30
2019-05-18T03:17:48.601Z,1.15
2019-05-18T03:20:18.699Z,1.20
2019-05-18T03:22:48.826Z,1.27
2019-05-18T03:25:18.990Z,1.12
2019-05-18T03:27:49.027Z,1.20
2019-05-18T03:30:19.713Z,1.20
2019-05-18T03:32:49.735Z,0.95
2019-05-18T03:35:19.768Z,1.02
2019-05-18T03:37:49.881Z,1.20
2019-05-18T03:40:20.358Z,1.30
2019-05-18T03:42:50.781Z,0.90
2019-05-18T03:45:20.890Z,1.12
2019-05-18T03:47:52.138Z,1.15
2019-05-18T03:50:22.190Z,1.12
2019-05-18T03:52:52.303Z,1.05
2019-05-18T03:55:22.660Z,1.30
2019-05-18T03:57:52.697Z,1.07
2019-05-18T04:00:22.789Z,1.10
2019-05-18T04:02:52.856Z,1.02
2019-05-18T04:05:22.934Z,1.20
2019-05-18T04:07:53.061Z,1.35
2019-05-18T04:10:25.161Z,1.12
2019-05-18T04:12:55.347Z,1.25
2019-05-18T04:15:25.529Z,1.10
2019-05-18T04:17:55.563Z,1.20
2019-05-18T04:20:25.710Z,1.22
2019-05-18T04:22:56.141Z,1.47
2019-05-18T04:25:26.194Z,1.10
2019-05-18T04:27:56.227Z,1.10
2019-05-18T04:30:26.260Z,1.35
2019-05-18T04:32:56.282Z,1.40
2019-05-18T04:35:26.413Z,1.65
2019-05-18T04:37:56.430Z,1.40
2019-05-18T04:40:26.544Z,0.80
2019-05-18T04:42:57.056Z,1.00
2019-05-18T04:45:27.109Z,1.10
2019-05-18T04:47:57.141Z,1.27
2019-05-18T04:50:27.320Z,1.10
2019-05-18T04:52:57.789Z,0.90
2019-05-18T04:55:27.827Z,1.00
2019-05-18T04:57:57.841Z,0.93
2019-05-18T05:00:27.969Z,1.00
2019-05-18T05:02:57.997Z,0.80
2019-05-18T05:05:28.049Z,0.82
2019-05-18T05:07:58.075Z,0.98
2019-05-18T05:10:28.193Z,1.15
2019-05-18T05:12:58.228Z,1.00
2019-05-18T05:15:28.268Z,1.10
2019-05-18T05:17:58.317Z,0.80
2019-05-18T05:20:29.122Z,1.05
2019-05-18T05:22:59.159Z,0.90
2019-05-18T05:25:29.198Z,1.30
2019-05-18T05:27:59.235Z,0.90
2019-05-18T05:30:29.286Z,0.90
2019-05-18T05:32:59.387Z,0.78
2019-05-18T05:35:29.421Z,0.70
2019-05-18T05:37:59.518Z,1.00
2019-05-18T05:40:29.608Z,1.05
2019-05-18T05:42:59.643Z,0.90
2019-05-18T05:45:29.706Z,1.17
2019-05-18T05:47:59.756Z,1.00
2019-05-18T05:50:35.852Z,1.15
2019-05-18T05:53:01.871Z,1.20
2019-05-18T05:55:31.902Z,0.90
2019-05-18T05:58:02.011Z,0.80
2019-05-18T06:00:32.037Z,0.90
2019-05-18T06:03:03.166Z,1.07
2019-05-18T06:05:33.189Z,0.90
2019-05-18T06:08:03.298Z,1.10
2019-05-18T06:10:33.489Z,0.90
2019-05-18T06:13:03.534Z,1.15
2019-05-18T06:15:33.579Z,1.22
2019-05-18T06:18:03.612Z,1.00
2019-05-18T06:20:33.665Z,1.00
2019-05-18T06:23:04.018Z,0.90
2019-05-18T06:25:34.553Z,0.85
2019-05-18T06:28:04.799Z,0.70
2019-05-18T06:30:34.901Z,0.90
2019-05-18T06:33:07.493Z,0.93
2019-05-18T06:35:37.528Z,0.87
2019-05-18T06:38:07.649Z,1.52
2019-05-18T06:40:37.738Z,1.30
2019-05-18T06:43:07.825Z,0.95
2019-05-18T06:45:37.845Z,1.07
2019-05-18T06:48:07.888Z,1.07
2019-05-18T06:50:37.916Z,1.10
2019-05-18T06:53:07.982Z,0.90
2019-05-18T06:55:39.140Z,1.00
2019-05-18T06:58:10.632Z,1.02
2019-05-18T07:00:40.738Z,1.00
2019-05-18T07:03:10.775Z,0.95
2019-05-18T07:05:40.879Z,1.30
2019-05-18T07:08:11.298Z,1.10
2019-05-18T07:10:41.363Z,1.10
2019-05-18T07:13:11.404Z,1.40
2019-05-18T07:15:41.444Z,1.27
2019-05-18T07:18:11.476Z,1.17
2019-05-18T07:20:41.580Z,1.30
2019-05-18T07:23:11.703Z,1.10
2019-05-18T07:25:43.342Z,1.20
2019-05-18T07:28:13.369Z,1.10
2019-05-18T07:30:43.704Z,1.30
2019-05-18T07:33:13.801Z,1.20
2019-05-18T07:35:43.902Z,1.02
2019-05-18T07:38:14.385Z,0.95
2019-05-18T07:40:44.901Z,0.98
2019-05-18T07:43:14.925Z,0.93
2019-05-18T07:45:45.057Z,0.80
2019-05-18T07:48:15.100Z,0.98
2019-05-18T07:50:45.683Z,0.80
2019-05-18T07:53:15.789Z,0.85
2019-05-18T07:55:45.896Z,0.80
2019-05-18T07:58:16.017Z,0.80
2019-05-18T08:00:46.479Z,0.70
2019-05-18T08:03:16.502Z,0.93
2019-05-18T08:05:46.547Z,1.00
2019-05-18T08:08:17.651Z,1.00
2019-05-18T08:10:47.701Z,0.72
2019-05-18T08:13:17.815Z,0.60
2019-05-18T08:15:47.863Z,0.82
2019-05-18T08:18:17.904Z,0.65
2019-05-18T08:20:48.015Z,0.90
2019-05-18T08:23:18.047Z,0.70
2019-05-18T08:25:48.074Z,0.70
2019-05-18T08:28:18.116Z,0.78
2019-05-18T08:30:48.158Z,0.85
2019-05-18T08:33:18.221Z,0.62
2019-05-18T08:35:48.255Z,0.70
2019-05-18T08:38:18.289Z,0.75
2019-05-18T08:40:48.387Z,0.80
2019-05-18T08:43:18.420Z,1.00
2019-05-18T08:45:48.471Z,1.00
2019-05-18T08:48:18.494Z,0.90
2019-05-18T08:50:48.558Z,1.02
2019-05-18T08:53:18.650Z,0.60
2019-05-18T08:55:48.769Z,0.70
2019-05-18T08:58:19.863Z,0.80
2019-05-18T09:00:49.976Z,0.88
2019-05-18T09:03:20.067Z,1.27
2019-05-18T09:05:50.187Z,0.90
2019-05-18T09:08:21.294Z,0.98
2019-05-18T09:10:51.330Z,0.88
2019-05-18T09:13:22.435Z,0.95
2019-05-18T09:15:52.541Z,1.57
2019-05-18T09:18:22.578Z,1.20
2019-05-18T09:20:52.668Z,1.10
2019-05-18T09:23:22.765Z,0.93
2019-05-18T09:25:52.810Z,0.85
2019-05-18T09:28:22.861Z,1.10
2019-05-18T09:30:52.954Z,1.10
2019-05-18T09:33:22.982Z,1.10
2019-05-18T09:35:53.027Z,1.20
2019-05-18T09:38:24.357Z,1.20
2019-05-18T09:40:54.459Z,1.22
2019-05-18T09:43:24.498Z,1.00
2019-05-18T09:45:54.883Z,1.20
2019-05-18T09:48:25.022Z,1.30
2019-05-18T09:50:55.050Z,1.00
2019-05-18T09:53:25.439Z,1.05
2019-05-18T09:55:55.477Z,0.78
2019-05-18T09:58:25.582Z,1.30
2019-05-18T10:00:55.680Z,1.15
2019-05-18T10:03:25.717Z,1.30
2019-05-18T10:05:55.856Z,1.40
2019-05-18T10:08:27.904Z,1.50
2019-05-18T10:10:57.621Z,1.30
2019-05-18T10:13:27.709Z,1.45
2019-05-18T10:15:57.759Z,1.20
2019-05-18T10:18:27.795Z,1.57
2019-05-18T10:20:57.826Z,1.37
2019-05-18T10:23:27.940Z,1.20
2019-05-18T10:25:58.018Z,1.25
2019-05-18T10:28:28.304Z,1.20
2019-05-18T10:30:58.339Z,2.12
2019-05-18T10:33:29.562Z,1.37
2019-05-18T10:35:59.678Z,1.02
2019-05-18T10:38:29.813Z,1.15
2019-05-18T10:40:59.839Z,1.10
2019-05-18T10:43:29.898Z,0.80
2019-05-18T10:46:00.229Z,1.17
2019-05-18T10:48:30.281Z,1.82
2019-05-18T10:51:00.319Z,1.20
2019-05-18T10:53:30.478Z,1.30
2019-05-18T10:56:00.572Z,1.10
2019-05-18T10:58:31.718Z,1.37
2019-05-18T11:01:01.904Z,1.30
2019-05-18T11:03:31.921Z,1.20
2019-05-18T11:06:02.039Z,1.37
2019-05-18T11:08:32.084Z,1.27
2019-05-18T11:11:02.187Z,1.65
2019-05-18T11:13:32.237Z,1.47
2019-05-18T11:16:02.365Z,2.10
2019-05-18T11:18:32.374Z,1.22
2019-05-18T11:21:03.560Z,1.90
2019-05-18T11:23:43.568Z,1.85
2019-05-18T11:26:08.523Z,1.67
2019-05-18T11:28:38.570Z,1.62
2019-05-18T11:31:08.683Z,1.90
2019-05-18T11:33:39.026Z,1.95
2019-05-18T11:36:09.077Z,1.90
2019-05-18T11:38:39.177Z,1.70
2019-05-18T11:41:09.234Z,1.47
2019-05-18T11:43:39.267Z,1.57
2019-05-18T11:46:09.375Z,1.57
2019-05-18T11:48:42.109Z,2.08
2019-05-18T11:51:12.148Z,2.27
2019-05-18T11:53:42.182Z,1.75
2019-05-18T11:56:12.282Z,1.60
2019-05-18T11:58:42.332Z,1.85
2019-05-18T12:01:12.365Z,2.37
2019-05-18T12:03:42.400Z,1.35
2019-05-18T12:06:12.445Z,1.77
2019-05-18T12:08:42.467Z,1.60
2019-05-18T12:11:12.579Z,2.10
2019-05-18T12:13:42.607Z,2.58
2019-05-18T12:16:17.179Z,2.67
2019-05-18T12:18:45.462Z,3.33
2019-05-18T12:21:15.485Z,2.12
2019-05-18T12:23:45.530Z,2.05
2019-05-18T12:26:15.559Z,2.20
2019-05-18T12:28:45.592Z,2.05
2019-05-18T12:31:15.627Z,1.82
2019-05-18T12:33:45.659Z,2.20
2019-05-18T12:36:16.076Z,2.95
2019-05-18T12:38:46.550Z,2.15
2019-05-18T12:41:18.290Z,2.10
2019-05-18T12:43:48.378Z,2.33
2019-05-18T12:46:18.487Z,2.10
2019-05-18T12:48:48.519Z,2.52
2019-05-18T12:51:18.542Z,2.00
2019-05-18T12:53:48.725Z,2.52
2019-05-18T12:56:18.831Z,1.90
2019-05-18T12:58:48.864Z,1.75
2019-05-18T13:01:20.444Z,2.00
2019-05-18T13:03:50.489Z,2.20
2019-05-18T13:06:23.606Z,1.60
2019-05-18T13:08:56.982Z,2.00
2019-05-18T13:11:32.500Z,1.98
2019-05-18T13:14:02.685Z,2.00
2019-05-18T13:16:32.824Z,1.70
2019-05-18T13:19:02.970Z,2.08
2019-05-18T13:21:34.079Z,1.47
2019-05-18T13:24:04.175Z,2.77
2019-05-18T13:26:34.225Z,2.65
2019-05-18T13:29:04.368Z,1.55
2019-05-18T13:31:34.523Z,1.87
2019-05-18T13:34:04.695Z,2.22
2019-05-18T13:36:35.723Z,1.98
2019-05-18T13:39:07.886Z,1.77
2019-05-18T13:41:38.006Z,1.98
2019-05-18T13:44:08.110Z,1.82
2019-05-18T13:46:39.205Z,2.05
2019-05-18T13:49:09.253Z,1.37
2019-05-18T13:51:39.283Z,1.57
2019-05-18T13:54:10.379Z,1.72
2019-05-18T13:56:40.430Z,1.20
2019-05-18T13:59:10.462Z,1.50
2019-05-18T14:01:40.566Z,1.30
2019-05-18T14:04:10.618Z,1.35
2019-05-18T14:06:40.738Z,1.10
2019-05-18T14:09:10.841Z,1.22
2019-05-18T14:11:40.870Z,0.80
2019-05-18T14:14:10.939Z,0.82
2019-05-18T14:16:40.953Z,1.77
2019-05-18T14:19:11.064Z,1.20
2019-05-18T14:21:41.112Z,1.47
2019-05-18T14:24:11.185Z,0.95
2019-05-18T14:26:41.199Z,1.60
2019-05-18T14:29:11.375Z,1.40
2019-05-18T14:31:41.794Z,1.20
2019-05-18T14:34:11.825Z,1.40
2019-05-18T14:36:41.943Z,1.65
2019-05-18T14:39:11.984Z,1.50
2019-05-18T14:41:42.592Z,1.80
2019-05-18T14:44:12.864Z,2.05
2019-05-18T14:46:42.896Z,2.00
2019-05-18T14:49:13.347Z,1.80
2019-05-18T14:51:43.467Z,1.98
2019-05-18T14:54:13.559Z,1.98
2019-05-18T14:56:44.006Z,2.50
2019-05-18T14:59:14.047Z,2.33
2019-05-18T15:01:44.098Z,2.47
2019-05-18T15:04:14.129Z,2.33
2019-05-18T15:06:44.180Z,2.35
2019-05-18T15:09:14.717Z,2.70
2019-05-18T15:11:45.139Z,2.33
2019-05-18T15:14:15.166Z,2.72
2019-05-18T15:16:45.207Z,2.80
2019-05-18T15:19:16.233Z,3.10
2019-05-18T15:21:46.335Z,3.35
2019-05-18T15:24:16.373Z,2.83
2019-05-18T15:26:46.479Z,2.98
2019-05-18T15:29:16.633Z,3.35
2019-05-18T15:31:46.664Z,3.83
2019-05-18T15:34:16.713Z,3.58
2019-05-18T15:36:46.809Z,3.85
2019-05-18T15:39:16.843Z,4.25
2019-05-18T15:41:46.886Z,3.87
2019-05-18T15:44:17.309Z,4.12
2019-05-18T15:46:47.440Z,4.17
2019-05-18T15:49:17.471Z,3.55
2019-05-18T15:51:47.506Z,4.55
2019-05-18T15:54:17.601Z,4.40
2019-05-18T15:56:47.639Z,3.98
2019-05-18T15:59:17.751Z,4.25
2019-05-18T16:01:47.878Z,4.17
2019-05-18T16:04:17.915Z,4.35
2019-05-18T16:06:47.951Z,4.60
2019-05-18T16:09:17.994Z,4.20
2019-05-18T16:11:48.018Z,3.77
2019-05-18T16:14:18.123Z,4.20
2019-05-18T16:16:48.421Z,4.25
2019-05-18T16:19:18.648Z,4.75
2019-05-18T16:21:48.696Z,4.10
2019-05-18T16:24:18.732Z,4.53
2019-05-18T16:26:49.129Z,4.08
2019-05-18T16:29:19.242Z,3.77
2019-05-18T16:31:49.355Z,5.20
2019-05-18T16:34:19.389Z,4.03
2019-05-18T16:36:49.431Z,3.75
2019-05-18T16:39:19.468Z,3.87
2019-05-18T16:41:49.507Z,4.22
2019-05-18T16:44:19.625Z,4.25
2019-05-18T16:46:49.746Z,4.00
2019-05-18T16:49:20.097Z,3.83
2019-05-18T16:51:50.229Z,3.87
2019-05-18T16:54:20.234Z,3.80
2019-05-18T16:56:50.276Z,3.90
2019-05-18T16:59:20.303Z,3.27
2019-05-18T17:01:50.437Z,3.80
2019-05-18T17:04:20.454Z,3.77
2019-05-18T17:06:50.636Z,3.17
2019-05-18T17:09:20.663Z,3.37
2019-05-18T17:11:50.762Z,3.52
2019-05-18T17:14:20.817Z,3.10
2019-05-18T17:16:50.851Z,2.83
2019-05-18T17:19:20.903Z,2.85
2019-05-18T17:21:51.368Z,3.55
2019-05-18T17:24:21.397Z,2.72
2019-05-18T17:26:53.190Z,3.45
2019-05-18T17:29:23.147Z,3.30
2019-05-18T17:31:53.177Z,2.80
2019-05-18T17:34:23.228Z,3.58
2019-05-18T17:36:53.252Z,3.30
2019-05-18T17:39:23.345Z,3.15
2019-05-18T17:41:53.465Z,3.35
2019-05-18T17:44:23.499Z,3.27
2019-05-18T17:46:53.553Z,2.42
2019-05-18T17:49:26.952Z,2.92
2019-05-18T17:51:55.310Z,3.15
2019-05-18T17:54:25.361Z,3.22
2019-05-18T17:57:07.432Z,2.90
2019-05-18T17:59:27.047Z,2.90
2019-05-18T18:01:57.074Z,2.60
2019-05-18T18:04:27.112Z,3.25
2019-05-18T18:06:57.222Z,2.65
2019-05-18T18:09:27.316Z,3.00
2019-05-18T18:11:57.415Z,2.55
2019-05-18T18:14:27.511Z,2.85
2019-05-18T18:16:57.553Z,2.80
2019-05-18T18:19:27.669Z,2.52
2019-05-18T18:21:57.699Z,3.00
2019-05-18T18:24:27.796Z,2.75
2019-05-18T18:26:57.909Z,2.65
2019-05-18T18:29:28.011Z,2.65
2019-05-18T18:31:58.043Z,2.27
2019-05-18T18:34:28.080Z,2.27
2019-05-18T18:36:59.604Z,2.65
2019-05-18T18:39:29.646Z,2.60
2019-05-18T18:41:59.679Z,2.52
2019-05-18T18:44:29.705Z,2.37
2019-05-18T18:46:59.748Z,2.40
2019-05-18T18:49:29.789Z,2.02
2019-05-18T18:51:59.895Z,2.40
2019-05-18T18:54:30.004Z,2.45
2019-05-18T18:57:00.128Z,2.17
2019-05-18T18:59:30.154Z,2.33
2019-05-18T19:02:00.987Z,2.08
2019-05-18T19:04:31.101Z,2.87
2019-05-18T19:07:01.153Z,2.70
2019-05-18T19:09:31.189Z,3.20
2019-05-18T19:12:01.218Z,2.20
2019-05-18T19:14:31.241Z,3.02
2019-05-18T19:17:01.283Z,2.50
2019-05-18T19:19:31.388Z,3.55
2019-05-18T19:22:01.462Z,3.33
2019-05-18T19:24:31.518Z,2.90
2019-05-18T19:27:01.599Z,2.50
2019-05-18T19:29:31.617Z,2.65
2019-05-18T19:32:01.710Z,2.47
2019-05-18T19:34:31.756Z,2.70
2019-05-18T19:37:01.810Z,3.33
2019-05-18T19:39:31.839Z,3.05
2019-05-18T19:42:02.260Z,2.60
2019-05-18T19:44:33.264Z,2.20
2019-05-18T19:47:03.379Z,2.72
2019-05-18T19:49:33.425Z,2.90
2019-05-18T19:52:03.538Z,3.10
2019-05-18T19:54:33.562Z,2.42
2019-05-18T19:57:03.765Z,2.60
2019-05-18T19:59:34.262Z,2.70
2019-05-18T20:02:04.401Z,3.02
2019-05-18T20:04:35.995Z,2.70
2019-05-18T20:07:06.117Z,3.42
2019-05-18T20:09:36.147Z,3.60
2019-05-18T20:12:06.245Z,3.15
2019-05-18T20:14:36.294Z,3.10
2019-05-18T20:17:06.474Z,2.70
2019-05-18T20:19:39.691Z,3.05
2019-05-18T20:22:08.390Z,2.70
2019-05-18T20:24:38.418Z,2.98
2019-05-18T20:27:08.596Z,2.52
2019-05-18T20:29:39.022Z,2.58
2019-05-18T20:32:09.206Z,2.83
2019-05-18T20:34:39.245Z,2.90
2019-05-18T20:37:09.281Z,3.10
2019-05-18T20:39:39.327Z,2.87
2019-05-18T20:42:09.365Z,3.33
2019-05-18T20:44:39.390Z,2.55
2019-05-18T20:47:09.511Z,3.58
2019-05-18T20:49:39.553Z,2.72
2019-05-18T20:52:09.587Z,2.92
2019-05-18T20:54:39.630Z,2.62
2019-05-18T20:57:09.677Z,2.40
2019-05-18T20:59:39.786Z,3.33
2019-05-18T21:02:09.828Z,2.80
2019-05-18T21:04:39.934Z,3.40
2019-05-18T21:07:10.032Z,2.62
2019-05-18T21:09:40.077Z,2.98
2019-05-18T21:12:10.253Z,2.77
2019-05-18T21:14:40.295Z,2.60
2019-05-18T21:17:10.397Z,2.65
2019-05-18T21:19:40.473Z,2.52
2019-05-18T21:22:10.518Z,3.00
2019-05-18T21:24:40.559Z,2.10
2019-05-18T21:27:10.598Z,2.30
2019-05-18T21:29:40.631Z,2.87
2019-05-18T21:32:10.683Z,2.42
2019-05-18T21:34:40.804Z,3.10
2019-05-18T21:37:10.832Z,3.17
2019-05-18T21:39:40.853Z,2.87
2019-05-18T21:42:10.977Z,2.90
2019-05-18T21:44:41.007Z,2.85
2019-05-18T21:47:11.350Z,2.77
2019-05-18T21:49:41.406Z,3.05
2019-05-18T21:52:11.431Z,2.98
2019-05-18T21:54:41.462Z,2.58
2019-05-18T21:57:11.505Z,2.62
2019-05-18T21:59:41.606Z,3.15
2019-05-18T22:02:11.781Z,3.30
2019-05-18T22:04:41.814Z,2.83
2019-05-18T22:07:11.867Z,2.90
2019-05-18T22:09:41.899Z,3.12
2019-05-18T22:12:12.995Z,2.70
2019-05-18T22:14:43.035Z,2.77
2019-05-18T22:17:13.380Z,3.30
2019-05-18T22:19:43.783Z,3.02
2019-05-18T22:22:13.933Z,3.80
2019-05-18T22:24:43.957Z,3.50
2019-05-18T22:27:14.006Z,3.50
2019-05-18T22:29:44.368Z,3.72
2019-05-18T22:32:14.400Z,3.35
2019-05-18T22:34:44.437Z,4.00
2019-05-18T22:37:14.548Z,3.80
2019-05-18T22:39:44.597Z,3.47
2019-05-18T22:42:14.726Z,3.20
2019-05-18T22:44:45.050Z,3.67
2019-05-18T22:47:15.137Z,3.47
2019-05-18T22:49:45.189Z,3.60
2019-05-18T22:52:15.195Z,3.60
2019-05-18T22:54:45.235Z,3.58
2019-05-18T22:57:15.285Z,4.25
2019-05-18T22:59:45.319Z,4.20
2019-05-18T23:02:15.716Z,3.50
2019-05-18T23:04:45.754Z,2.90
2019-05-18T23:07:15.783Z,3.33
2019-05-18T23:09:45.818Z,2.33
2019-05-18T23:12:15.853Z,1.10
2019-05-18T23:14:45.905Z,0.93
2019-05-18T23:17:15.949Z,0.70
2019-05-18T23:19:45.973Z,0.57
2019-05-18T23:22:16.019Z,0.50
2019-05-18T23:24:46.060Z,0.70
2019-05-18T23:27:16.551Z,1.07
2019-05-18T23:29:46.581Z,0.80
2019-05-18T23:32:16.632Z,0.90
2019-05-18T23:34:46.729Z,0.55
2019-05-18T23:37:16.759Z,0.55
2019-05-18T23:39:46.808Z,1.02
2019-05-18T23:42:16.853Z,1.22
2019-05-18T23:44:46.891Z,0.85
2019-05-18T23:47:16.977Z,1.10
2019-05-18T23:49:47.027Z,1.12
2019-05-18T23:52:17.140Z,1.00
2019-05-18T23:54:47.176Z,0.98
2019-05-18T23:57:17.290Z,0.70
2019-05-18T23:59:47.401Z,1.92
